sensor_id;sensor_type;location;lat;lon;timestamp;temperature;humidity
23124;DHT22;11731;48.592;8.858;2023-02-21T00:01:42;6.50;99.50
23124;DHT22;11731;48.592;8.858;2023-02-21T00:04:27;6.50;99.60
23124;DHT22;11731;48.592;8.858;2023-02-21T00:07:11;6.50;99.50
23124;DHT22;11731;48.592;8.858;2023-02-21T00:09:55;6.50;99.30
23124;DHT22;11731;48.592;8.858;2023-02-21T00:12:41;6.50;99.30
23124;DHT22;11731;48.592;8.858;2023-02-21T00:15:25;6.50;99.30
23124;DHT22;11731;48.592;8.858;2023-02-21T00:18:09;6.30;99.50
23124;DHT22;11731;48.592;8.858;2023-02-21T00:20:54;6.40;99.30
23124;DHT22;11731;48.592;8.858;2023-02-21T00:23:38;6.30;99.90
23124;DHT22;11731;48.592;8.858;2023-02-21T00:26:22;6.20;99.90
23124;DHT22;11731;48.592;8.858;2023-02-21T00:29:08;6.20;99.90
23124;DHT22;11731;48.592;8.858;2023-02-21T00:31:52;6.30;99.90
23124;DHT22;11731;48.592;8.858;2023-02-21T00:34:37;6.30;99.60
23124;DHT22;11731;48.592;8.858;2023-02-21T00:37:21;6.20;99.90
23124;DHT22;11731;48.592;8.858;2023-02-21T00:40:06;6.20;99.90
23124;DHT22;11731;48.592;8.858;2023-02-21T00:42:51;6.10;99.90
23124;DHT22;11731;48.592;8.858;2023-02-21T00:45:36;6.00;99.70
23124;DHT22;11731;48.592;8.858;2023-02-21T00:48:21;6.00;99.90
23124;DHT22;11731;48.592;8.858;2023-02-21T00:51:06;6.00;99.90
23124;DHT22;11731;48.592;8.858;2023-02-21T00:53:50;6.00;99.90
23124;DHT22;11731;48.592;8.858;2023-02-21T00:56:35;6.00;99.90
23124;DHT22;11731;48.592;8.858;2023-02-21T00:59:19;6.10;99.80
23124;DHT22;11731;48.592;8.858;2023-02-21T01:02:05;6.10;99.80
23124;DHT22;11731;48.592;8.858;2023-02-21T01:04:50;5.90;99.90
23124;DHT22;11731;48.592;8.858;2023-02-21T01:07:34;5.90;99.90
23124;DHT22;11731;48.592;8.858;2023-02-21T01:10:19;5.90;99.90
23124;DHT22;11731;48.592;8.858;2023-02-21T01:13:04;5.90;99.90
23124;DHT22;11731;48.592;8.858;2023-02-21T01:15:48;6.00;99.90
23124;DHT22;11731;48.592;8.858;2023-02-21T01:18:34;6.00;99.80
23124;DHT22;11731;48.592;8.858;2023-02-21T01:21:18;5.90;99.60
23124;DHT22;11731;48.592;8.858;2023-02-21T01:24:04;5.70;99.50
23124;DHT22;11731;48.592;8.858;2023-02-21T01:26:48;5.90;99.70
23124;DHT22;11731;48.592;8.858;2023-02-21T01:29:32;5.80;99.70
23124;DHT22;11731;48.592;8.858;2023-02-21T01:32:17;5.80;99.60
23124;DHT22;11731;48.592;8.858;2023-02-21T01:35:02;5.70;99.80
23124;DHT22;11731;48.592;8.858;2023-02-21T01:37:47;5.70;99.90
23124;DHT22;11731;48.592;8.858;2023-02-21T01:40:31;5.80;99.50
23124;DHT22;11731;48.592;8.858;2023-02-21T01:43:16;5.70;99.70
23124;DHT22;11731;48.592;8.858;2023-02-21T01:46:01;5.60;99.90
23124;DHT22;11731;48.592;8.858;2023-02-21T01:48:46;5.60;99.90
23124;DHT22;11731;48.592;8.858;2023-02-21T01:51:34;5.60;99.90
23124;DHT22;11731;48.592;8.858;2023-02-21T01:54:20;5.70;99.90
23124;DHT22;11731;48.592;8.858;2023-02-21T01:57:06;5.60;99.90
23124;DHT22;11731;48.592;8.858;2023-02-21T01:59:52;5.60;99.90
23124;DHT22;11731;48.592;8.858;2023-02-21T02:02:45;5.50;99.90
23124;DHT22;11731;48.592;8.858;2023-02-21T02:05:31;5.50;99.90
23124;DHT22;11731;48.592;8.858;2023-02-21T02:08:20;5.50;99.90
23124;DHT22;11731;48.592;8.858;2023-02-21T02:11:35;5.50;99.90
23124;DHT22;11731;48.592;8.858;2023-02-21T02:14:36;5.50;99.90
23124;DHT22;11731;48.592;8.858;2023-02-21T02:17:13;5.40;99.90
23124;DHT22;11731;48.592;8.858;2023-02-21T02:23:30;5.50;99.90
23124;DHT22;11731;48.592;8.858;2023-02-21T02:29:29;5.50;99.90
23124;DHT22;11731;48.592;8.858;2023-02-21T02:32:37;5.40;99.90
23124;DHT22;11731;48.592;8.858;2023-02-21T02:35:11;5.40;99.90
23124;DHT22;11731;48.592;8.858;2023-02-21T02:37:46;5.40;99.90
23124;DHT22;11731;48.592;8.858;2023-02-21T02:40:21;5.40;99.90
23124;DHT22;11731;48.592;8.858;2023-02-21T02:42:57;5.40;99.90
23124;DHT22;11731;48.592;8.858;2023-02-21T02:45:30;5.20;99.90
23124;DHT22;11731;48.592;8.858;2023-02-21T02:48:01;5.30;99.90
23124;DHT22;11731;48.592;8.858;2023-02-21T02:50:31;5.30;99.90
23124;DHT22;11731;48.592;8.858;2023-02-21T02:53:01;5.30;99.90
23124;DHT22;11731;48.592;8.858;2023-02-21T02:55:38;5.50;99.90
23124;DHT22;11731;48.592;8.858;2023-02-21T02:58:07;5.50;99.90
23124;DHT22;11731;48.592;8.858;2023-02-21T03:00:37;5.60;99.90
23124;DHT22;11731;48.592;8.858;2023-02-21T03:03:20;5.60;99.90
23124;DHT22;11731;48.592;8.858;2023-02-21T03:06:03;5.60;99.90
23124;DHT22;11731;48.592;8.858;2023-02-21T03:08:37;5.50;99.90
23124;DHT22;11731;48.592;8.858;2023-02-21T03:11:11;5.60;99.90
23124;DHT22;11731;48.592;8.858;2023-02-21T03:13:44;5.40;99.90
23124;DHT22;11731;48.592;8.858;2023-02-21T03:16:19;5.40;99.90
23124;DHT22;11731;48.592;8.858;2023-02-21T03:18:52;5.30;99.90
23124;DHT22;11731;48.592;8.858;2023-02-21T03:21:25;5.30;99.90
23124;DHT22;11731;48.592;8.858;2023-02-21T03:23:55;5.30;99.90
23124;DHT22;11731;48.592;8.858;2023-02-21T03:26:26;5.30;99.90
23124;DHT22;11731;48.592;8.858;2023-02-21T03:28:54;5.30;99.90
23124;DHT22;11731;48.592;8.858;2023-02-21T03:31:25;5.40;99.90
23124;DHT22;11731;48.592;8.858;2023-02-21T03:33:53;5.50;99.90
23124;DHT22;11731;48.592;8.858;2023-02-21T03:36:22;5.30;99.90
23124;DHT22;11731;48.592;8.858;2023-02-21T03:38:49;5.00;99.90
23124;DHT22;11731;48.592;8.858;2023-02-21T03:41:16;5.10;99.90
23124;DHT22;11731;48.592;8.858;2023-02-21T03:43:43;5.10;99.90
23124;DHT22;11731;48.592;8.858;2023-02-21T03:46:10;5.30;99.90
23124;DHT22;11731;48.592;8.858;2023-02-21T03:48:36;5.30;99.90
23124;DHT22;11731;48.592;8.858;2023-02-21T03:51:04;5.30;99.90
23124;DHT22;11731;48.592;8.858;2023-02-21T03:53:32;5.30;99.90
23124;DHT22;11731;48.592;8.858;2023-02-21T03:55:59;5.10;99.90
23124;DHT22;11731;48.592;8.858;2023-02-21T03:58:26;5.10;99.90
23124;DHT22;11731;48.592;8.858;2023-02-21T04:00:53;5.40;99.90
23124;DHT22;11731;48.592;8.858;2023-02-21T04:03:20;5.20;99.90
23124;DHT22;11731;48.592;8.858;2023-02-21T04:05:47;5.30;99.90
23124;DHT22;11731;48.592;8.858;2023-02-21T04:08:15;5.30;99.90
23124;DHT22;11731;48.592;8.858;2023-02-21T04:10:44;5.20;99.90
23124;DHT22;11731;48.592;8.858;2023-02-21T04:13:10;5.20;99.90
23124;DHT22;11731;48.592;8.858;2023-02-21T04:15:38;5.20;99.90
23124;DHT22;11731;48.592;8.858;2023-02-21T04:18:05;5.20;99.90
23124;DHT22;11731;48.592;8.858;2023-02-21T04:20:32;5.20;99.90
23124;DHT22;11731;48.592;8.858;2023-02-21T04:22:59;5.20;99.90
23124;DHT22;11731;48.592;8.858;2023-02-21T04:25:27;5.30;99.90
23124;DHT22;11731;48.592;8.858;2023-02-21T04:27:56;5.10;99.90
23124;DHT22;11731;48.592;8.858;2023-02-21T04:30:23;5.10;99.90
23124;DHT22;11731;48.592;8.858;2023-02-21T04:32:50;5.30;99.90
23124;DHT22;11731;48.592;8.858;2023-02-21T04:35:17;5.40;99.90
23124;DHT22;11731;48.592;8.858;2023-02-21T04:37:44;5.40;99.90
23124;DHT22;11731;48.592;8.858;2023-02-21T04:40:11;5.20;99.90
23124;DHT22;11731;48.592;8.858;2023-02-21T04:42:39;5.30;99.90
23124;DHT22;11731;48.592;8.858;2023-02-21T04:45:08;5.20;99.90
23124;DHT22;11731;48.592;8.858;2023-02-21T04:47:35;5.50;99.90
23124;DHT22;11731;48.592;8.858;2023-02-21T04:50:02;5.60;99.90
23124;DHT22;11731;48.592;8.858;2023-02-21T04:52:29;5.50;99.90
23124;DHT22;11731;48.592;8.858;2023-02-21T04:54:56;5.30;99.90
23124;DHT22;11731;48.592;8.858;2023-02-21T04:57:23;5.20;99.90
23124;DHT22;11731;48.592;8.858;2023-02-21T04:59:56;5.20;99.90
23124;DHT22;11731;48.592;8.858;2023-02-21T05:02:25;5.20;99.90
23124;DHT22;11731;48.592;8.858;2023-02-21T05:04:52;5.20;99.90
23124;DHT22;11731;48.592;8.858;2023-02-21T05:07:19;5.20;99.90
23124;DHT22;11731;48.592;8.858;2023-02-21T05:09:46;5.20;99.90
23124;DHT22;11731;48.592;8.858;2023-02-21T05:12:28;5.10;99.90
23124;DHT22;11731;48.592;8.858;2023-02-21T05:14:56;5.20;99.90
23124;DHT22;11731;48.592;8.858;2023-02-21T05:17:24;5.10;99.90
23124;DHT22;11731;48.592;8.858;2023-02-21T05:19:52;5.10;99.90
23124;DHT22;11731;48.592;8.858;2023-02-21T05:22:20;5.20;99.90
23124;DHT22;11731;48.592;8.858;2023-02-21T05:24:47;5.20;99.90
23124;DHT22;11731;48.592;8.858;2023-02-21T05:27:16;5.30;99.90
23124;DHT22;11731;48.592;8.858;2023-02-21T05:29:46;5.20;99.90
23124;DHT22;11731;48.592;8.858;2023-02-21T05:32:13;5.10;99.90
23124;DHT22;11731;48.592;8.858;2023-02-21T05:34:47;5.00;99.90
23124;DHT22;11731;48.592;8.858;2023-02-21T05:37:14;5.10;99.90
23124;DHT22;11731;48.592;8.858;2023-02-21T05:39:41;5.00;99.90
23124;DHT22;11731;48.592;8.858;2023-02-21T05:42:08;4.90;99.90
23124;DHT22;11731;48.592;8.858;2023-02-21T05:44:35;5.00;99.90
23124;DHT22;11731;48.592;8.858;2023-02-21T05:47:03;5.10;99.90
23124;DHT22;11731;48.592;8.858;2023-02-21T05:49:31;5.00;99.90
23124;DHT22;11731;48.592;8.858;2023-02-21T05:52:00;5.00;99.90
23124;DHT22;11731;48.592;8.858;2023-02-21T05:54:31;5.00;99.90
23124;DHT22;11731;48.592;8.858;2023-02-21T05:57:09;4.90;99.90
23124;DHT22;11731;48.592;8.858;2023-02-21T05:59:38;4.90;99.90
23124;DHT22;11731;48.592;8.858;2023-02-21T06:02:06;5.00;99.90
23124;DHT22;11731;48.592;8.858;2023-02-21T06:04:33;5.00;99.90
23124;DHT22;11731;48.592;8.858;2023-02-21T06:07:06;4.90;99.90
23124;DHT22;11731;48.592;8.858;2023-02-21T06:09:33;4.90;99.90
23124;DHT22;11731;48.592;8.858;2023-02-21T06:12:02;4.90;99.90
23124;DHT22;11731;48.592;8.858;2023-02-21T06:14:29;5.00;99.90
23124;DHT22;11731;48.592;8.858;2023-02-21T06:16:56;5.00;99.90
23124;DHT22;11731;48.592;8.858;2023-02-21T06:19:24;5.00;99.90
23124;DHT22;11731;48.592;8.858;2023-02-21T06:21:51;4.90;99.90
23124;DHT22;11731;48.592;8.858;2023-02-21T06:24:20;4.90;99.90
23124;DHT22;11731;48.592;8.858;2023-02-21T06:26:47;4.80;99.90
23124;DHT22;11731;48.592;8.858;2023-02-21T06:29:13;4.90;99.90
23124;DHT22;11731;48.592;8.858;2023-02-21T06:31:40;4.80;99.90
23124;DHT22;11731;48.592;8.858;2023-02-21T06:34:07;4.90;99.90
23124;DHT22;11731;48.592;8.858;2023-02-21T06:36:34;5.00;99.90
23124;DHT22;11731;48.592;8.858;2023-02-21T06:39:01;5.00;99.90
23124;DHT22;11731;48.592;8.858;2023-02-21T06:41:37;4.90;99.90
23124;DHT22;11731;48.592;8.858;2023-02-21T06:44:04;5.10;99.90
23124;DHT22;11731;48.592;8.858;2023-02-21T06:46:33;5.10;99.90
23124;DHT22;11731;48.592;8.858;2023-02-21T06:49:01;5.00;99.90
23124;DHT22;11731;48.592;8.858;2023-02-21T06:51:33;5.20;99.90
23124;DHT22;11731;48.592;8.858;2023-02-21T06:54:00;5.10;99.90
23124;DHT22;11731;48.592;8.858;2023-02-21T06:56:28;5.10;99.90
23124;DHT22;11731;48.592;8.858;2023-02-21T06:58:56;5.10;99.90
23124;DHT22;11731;48.592;8.858;2023-02-21T07:01:25;5.00;99.90
23124;DHT22;11731;48.592;8.858;2023-02-21T07:03:52;5.00;99.90
23124;DHT22;11731;48.592;8.858;2023-02-21T07:06:19;5.00;99.90
23124;DHT22;11731;48.592;8.858;2023-02-21T07:08:46;4.90;99.90
23124;DHT22;11731;48.592;8.858;2023-02-21T07:11:15;4.70;99.90
23124;DHT22;11731;48.592;8.858;2023-02-21T07:13:46;4.50;99.90
23124;DHT22;11731;48.592;8.858;2023-02-21T07:16:18;4.30;99.90
23124;DHT22;11731;48.592;8.858;2023-02-21T07:18:49;4.30;99.90
23124;DHT22;11731;48.592;8.858;2023-02-21T07:21:17;4.30;99.90
23124;DHT22;11731;48.592;8.858;2023-02-21T07:23:45;4.20;99.90
23124;DHT22;11731;48.592;8.858;2023-02-21T07:26:12;4.10;99.90
23124;DHT22;11731;48.592;8.858;2023-02-21T07:28:40;4.40;99.90
23124;DHT22;11731;48.592;8.858;2023-02-21T07:31:07;4.50;99.90
23124;DHT22;11731;48.592;8.858;2023-02-21T07:33:36;4.50;99.90
23124;DHT22;11731;48.592;8.858;2023-02-21T07:36:04;4.50;99.90
23124;DHT22;11731;48.592;8.858;2023-02-21T07:38:31;4.20;99.90
23124;DHT22;11731;48.592;8.858;2023-02-21T07:41:01;4.10;99.90
23124;DHT22;11731;48.592;8.858;2023-02-21T07:43:30;4.20;99.90
23124;DHT22;11731;48.592;8.858;2023-02-21T07:46:01;4.40;99.90
23124;DHT22;11731;48.592;8.858;2023-02-21T07:48:28;4.50;99.90
23124;DHT22;11731;48.592;8.858;2023-02-21T07:50:59;4.70;99.90
23124;DHT22;11731;48.592;8.858;2023-02-21T07:53:27;4.80;99.90
23124;DHT22;11731;48.592;8.858;2023-02-21T07:55:54;5.10;99.90
23124;DHT22;11731;48.592;8.858;2023-02-21T07:58:21;5.50;99.80
23124;DHT22;11731;48.592;8.858;2023-02-21T08:01:07;5.80;99.90
23124;DHT22;11731;48.592;8.858;2023-02-21T08:03:34;5.90;99.90
23124;DHT22;11731;48.592;8.858;2023-02-21T08:06:04;6.00;99.90
23124;DHT22;11731;48.592;8.858;2023-02-21T08:08:30;6.30;99.90
23124;DHT22;11731;48.592;8.858;2023-02-21T08:10:57;6.30;99.90
23124;DHT22;11731;48.592;8.858;2023-02-21T08:13:24;6.50;99.80
23124;DHT22;11731;48.592;8.858;2023-02-21T08:15:51;6.70;99.70
23124;DHT22;11731;48.592;8.858;2023-02-21T08:18:20;7.00;99.30
23124;DHT22;11731;48.592;8.858;2023-02-21T08:20:49;7.10;99.30
23124;DHT22;11731;48.592;8.858;2023-02-21T08:23:17;7.10;98.90
23124;DHT22;11731;48.592;8.858;2023-02-21T08:25:44;7.30;99.00
23124;DHT22;11731;48.592;8.858;2023-02-21T08:28:12;7.50;98.80
23124;DHT22;11731;48.592;8.858;2023-02-21T08:31:25;7.50;98.70
23124;DHT22;11731;48.592;8.858;2023-02-21T08:33:54;7.40;98.10
23124;DHT22;11731;48.592;8.858;2023-02-21T08:36:21;7.70;98.50
23124;DHT22;11731;48.592;8.858;2023-02-21T08:38:51;7.90;98.90
23124;DHT22;11731;48.592;8.858;2023-02-21T08:41:18;8.10;98.30
23124;DHT22;11731;48.592;8.858;2023-02-21T08:43:47;8.10;97.90
23124;DHT22;11731;48.592;8.858;2023-02-21T08:46:14;8.20;98.40
23124;DHT22;11731;48.592;8.858;2023-02-21T08:48:41;8.00;98.70
23124;DHT22;11731;48.592;8.858;2023-02-21T08:51:08;7.80;99.20
23124;DHT22;11731;48.592;8.858;2023-02-21T08:54:00;8.00;99.10
23124;DHT22;11731;48.592;8.858;2023-02-21T08:56:28;8.20;99.20
23124;DHT22;11731;48.592;8.858;2023-02-21T08:58:59;8.50;98.70
23124;DHT22;11731;48.592;8.858;2023-02-21T09:01:46;8.60;98.50
23124;DHT22;11731;48.592;8.858;2023-02-21T09:04:12;8.70;98.30
23124;DHT22;11731;48.592;8.858;2023-02-21T09:16:58;9.40;98.20
23124;DHT22;11731;48.592;8.858;2023-02-21T09:19:25;9.50;98.40
23124;DHT22;11731;48.592;8.858;2023-02-21T09:21:52;9.50;98.30
23124;DHT22;11731;48.592;8.858;2023-02-21T09:24:32;9.60;98.40
23124;DHT22;11731;48.592;8.858;2023-02-21T09:27:00;9.80;98.00
23124;DHT22;11731;48.592;8.858;2023-02-21T09:29:48;10.00;97.30
23124;DHT22;11731;48.592;8.858;2023-02-21T09:32:17;10.20;97.20
23124;DHT22;11731;48.592;8.858;2023-02-21T09:34:44;10.10;97.50
23124;DHT22;11731;48.592;8.858;2023-02-21T09:37:10;10.30;97.50
23124;DHT22;11731;48.592;8.858;2023-02-21T09:39:37;10.40;97.40
23124;DHT22;11731;48.592;8.858;2023-02-21T09:42:05;10.50;97.40
23124;DHT22;11731;48.592;8.858;2023-02-21T09:48:17;10.80;97.10
23124;DHT22;11731;48.592;8.858;2023-02-21T09:50:48;10.80;97.00
23124;DHT22;11731;48.592;8.858;2023-02-21T09:53:20;10.90;97.00
23124;DHT22;11731;48.592;8.858;2023-02-21T09:55:49;11.10;96.90
23124;DHT22;11731;48.592;8.858;2023-02-21T09:58:19;11.20;96.80
23124;DHT22;11731;48.592;8.858;2023-02-21T10:00:46;11.50;96.90
23124;DHT22;11731;48.592;8.858;2023-02-21T10:09:53;11.50;96.90
23124;DHT22;11731;48.592;8.858;2023-02-21T10:12:25;11.80;96.80
23124;DHT22;11731;48.592;8.858;2023-02-21T10:15:20;12.00;96.30
23124;DHT22;11731;48.592;8.858;2023-02-21T10:17:56;12.00;96.30
23124;DHT22;11731;48.592;8.858;2023-02-21T10:23:59;12.30;96.00
23124;DHT22;11731;48.592;8.858;2023-02-21T10:26:37;12.40;95.70
23124;DHT22;11731;48.592;8.858;2023-02-21T10:29:32;12.50;95.10
23124;DHT22;11731;48.592;8.858;2023-02-21T10:32:02;12.70;95.50
23124;DHT22;11731;48.592;8.858;2023-02-21T10:34:31;13.00;94.80
23124;DHT22;11731;48.592;8.858;2023-02-21T10:37:03;13.20;94.30
23124;DHT22;11731;48.592;8.858;2023-02-21T10:39:35;13.20;94.20
23124;DHT22;11731;48.592;8.858;2023-02-21T10:42:09;13.20;94.20
23124;DHT22;11731;48.592;8.858;2023-02-21T10:44:39;13.30;93.60
23124;DHT22;11731;48.592;8.858;2023-02-21T10:47:44;13.70;93.10
23124;DHT22;11731;48.592;8.858;2023-02-21T10:50:12;13.70;93.20
23124;DHT22;11731;48.592;8.858;2023-02-21T10:52:46;13.70;92.90
23124;DHT22;11731;48.592;8.858;2023-02-21T10:55:18;14.00;93.00
23124;DHT22;11731;48.592;8.858;2023-02-21T10:57:52;14.20;92.00
23124;DHT22;11731;48.592;8.858;2023-02-21T11:03:35;14.40;92.20
23124;DHT22;11731;48.592;8.858;2023-02-21T11:04:04;14.60;91.70
23124;DHT22;11731;48.592;8.858;2023-02-21T11:06:34;14.70;91.50
23124;DHT22;11731;48.592;8.858;2023-02-21T11:09:22;14.70;91.20
23124;DHT22;11731;48.592;8.858;2023-02-21T11:11:59;14.70;91.50
23124;DHT22;11731;48.592;8.858;2023-02-21T11:14:30;14.60;91.00
23124;DHT22;11731;48.592;8.858;2023-02-21T11:17:13;14.70;90.80
23124;DHT22;11731;48.592;8.858;2023-02-21T11:20:13;14.80;90.90
23124;DHT22;11731;48.592;8.858;2023-02-21T11:23:18;14.50;90.90
23124;DHT22;11731;48.592;8.858;2023-02-21T11:25:47;14.90;90.50
23124;DHT22;11731;48.592;8.858;2023-02-21T11:28:18;15.00;90.00
23124;DHT22;11731;48.592;8.858;2023-02-21T11:34:06;15.60;88.70
23124;DHT22;11731;48.592;8.858;2023-02-21T11:36:36;15.40;87.90
23124;DHT22;11731;48.592;8.858;2023-02-21T11:39:06;15.60;87.10
23124;DHT22;11731;48.592;8.858;2023-02-21T11:41:46;15.60;87.70
23124;DHT22;11731;48.592;8.858;2023-02-21T11:44:33;15.80;86.80
23124;DHT22;11731;48.592;8.858;2023-02-21T11:47:10;16.00;85.70
23124;DHT22;11731;48.592;8.858;2023-02-21T11:49:47;16.10;86.00
23124;DHT22;11731;48.592;8.858;2023-02-21T11:52:21;16.20;85.00
23124;DHT22;11731;48.592;8.858;2023-02-21T11:54:50;16.20;85.20
23124;DHT22;11731;48.592;8.858;2023-02-21T11:57:21;16.20;84.30
23124;DHT22;11731;48.592;8.858;2023-02-21T11:59:55;16.50;84.10
23124;DHT22;11731;48.592;8.858;2023-02-21T12:05:42;16.50;84.10
23124;DHT22;11731;48.592;8.858;2023-02-21T12:08:23;16.50;84.10
23124;DHT22;11731;48.592;8.858;2023-02-21T12:10:59;16.70;82.50
23124;DHT22;11731;48.592;8.858;2023-02-21T12:16:54;16.80;81.70
23124;DHT22;11731;48.592;8.858;2023-02-21T12:20:17;17.10;81.70
23124;DHT22;11731;48.592;8.858;2023-02-21T12:22:57;17.10;80.70
23124;DHT22;11731;48.592;8.858;2023-02-21T12:25:31;17.40;80.60
23124;DHT22;11731;48.592;8.858;2023-02-21T12:28:10;17.50;79.80
23124;DHT22;11731;48.592;8.858;2023-02-21T12:31:10;17.70;79.30
23124;DHT22;11731;48.592;8.858;2023-02-21T12:33:45;17.70;78.20
23124;DHT22;11731;48.592;8.858;2023-02-21T12:39:48;17.60;78.90
23124;DHT22;11731;48.592;8.858;2023-02-21T12:42:31;17.40;78.90
23124;DHT22;11731;48.592;8.858;2023-02-21T12:45:16;17.30;79.30
23124;DHT22;11731;48.592;8.858;2023-02-21T12:47:50;17.70;78.40
23124;DHT22;11731;48.592;8.858;2023-02-21T12:50:21;17.80;77.70
23124;DHT22;11731;48.592;8.858;2023-02-21T12:52:55;17.80;77.30
23124;DHT22;11731;48.592;8.858;2023-02-21T12:56:05;18.00;77.40
23124;DHT22;11731;48.592;8.858;2023-02-21T12:58:36;18.00;77.80
23124;DHT22;11731;48.592;8.858;2023-02-21T13:04:21;18.10;77.40
23124;DHT22;11731;48.592;8.858;2023-02-21T13:06:52;17.80;78.00
23124;DHT22;11731;48.592;8.858;2023-02-21T13:09:29;17.60;77.90
23124;DHT22;11731;48.592;8.858;2023-02-21T13:12:10;17.40;78.50
23124;DHT22;11731;48.592;8.858;2023-02-21T13:14:42;17.70;77.40
23124;DHT22;11731;48.592;8.858;2023-02-21T13:17:12;17.80;77.80
23124;DHT22;11731;48.592;8.858;2023-02-21T13:19:59;18.10;76.40
23124;DHT22;11731;48.592;8.858;2023-02-21T13:26:07;18.00;77.00
23124;DHT22;11731;48.592;8.858;2023-02-21T13:28:40;18.10;77.00
23124;DHT22;11731;48.592;8.858;2023-02-21T13:31:17;18.30;75.90
23124;DHT22;11731;48.592;8.858;2023-02-21T13:33:50;18.50;75.40
23124;DHT22;11731;48.592;8.858;2023-02-21T13:36:24;18.40;75.70
23124;DHT22;11731;48.592;8.858;2023-02-21T13:39:00;18.50;75.70
23124;DHT22;11731;48.592;8.858;2023-02-21T13:41:33;18.40;75.30
23124;DHT22;11731;48.592;8.858;2023-02-21T13:44:07;18.40;75.90
23124;DHT22;11731;48.592;8.858;2023-02-21T13:47:10;18.40;75.90
23124;DHT22;11731;48.592;8.858;2023-02-21T13:49:54;18.50;75.40
23124;DHT22;11731;48.592;8.858;2023-02-21T13:52:33;18.20;75.60
23124;DHT22;11731;48.592;8.858;2023-02-21T13:55:25;18.20;76.10
23124;DHT22;11731;48.592;8.858;2023-02-21T14:01:40;18.60;75.10
23124;DHT22;11731;48.592;8.858;2023-02-21T14:10:35;18.20;75.00
23124;DHT22;11731;48.592;8.858;2023-02-21T14:13:05;18.30;74.70
23124;DHT22;11731;48.592;8.858;2023-02-21T14:15:44;18.40;74.80
23124;DHT22;11731;48.592;8.858;2023-02-21T14:18:31;18.50;74.70
23124;DHT22;11731;48.592;8.858;2023-02-21T14:21:08;18.70;74.40
23124;DHT22;11731;48.592;8.858;2023-02-21T14:23:40;18.80;73.80
23124;DHT22;11731;48.592;8.858;2023-02-21T14:26:37;18.80;73.40
23124;DHT22;11731;48.592;8.858;2023-02-21T14:29:27;18.80;73.80
23124;DHT22;11731;48.592;8.858;2023-02-21T14:31:57;18.60;73.90
23124;DHT22;11731;48.592;8.858;2023-02-21T14:34:52;18.40;74.40
23124;DHT22;11731;48.592;8.858;2023-02-21T14:37:23;18.50;74.10
23124;DHT22;11731;48.592;8.858;2023-02-21T14:39:54;18.40;75.00
23124;DHT22;11731;48.592;8.858;2023-02-21T14:42:43;18.70;74.70
23124;DHT22;11731;48.592;8.858;2023-02-21T14:45:25;19.00;74.30
23124;DHT22;11731;48.592;8.858;2023-02-21T14:48:11;19.20;73.10
23124;DHT22;11731;48.592;8.858;2023-02-21T14:50:57;19.40;73.00
23124;DHT22;11731;48.592;8.858;2023-02-21T14:53:44;19.20;73.00
23124;DHT22;11731;48.592;8.858;2023-02-21T14:56:50;19.10;74.20
23124;DHT22;11731;48.592;8.858;2023-02-21T15:02:19;19.00;74.40
23124;DHT22;11731;48.592;8.858;2023-02-21T15:04:56;19.10;73.90
23124;DHT22;11731;48.592;8.858;2023-02-21T15:07:31;19.10;73.40
23124;DHT22;11731;48.592;8.858;2023-02-21T15:10:10;18.80;73.40
23124;DHT22;11731;48.592;8.858;2023-02-21T15:12:40;18.60;73.80
23124;DHT22;11731;48.592;8.858;2023-02-21T15:15:33;18.80;73.30
23124;DHT22;11731;48.592;8.858;2023-02-21T15:18:05;19.10;73.10
23124;DHT22;11731;48.592;8.858;2023-02-21T15:20:34;19.10;73.60
23124;DHT22;11731;48.592;8.858;2023-02-21T15:23:19;18.80;74.10
23124;DHT22;11731;48.592;8.858;2023-02-21T15:25:55;19.00;74.10
23124;DHT22;11731;48.592;8.858;2023-02-21T15:28:27;19.10;73.60
23124;DHT22;11731;48.592;8.858;2023-02-21T15:30:57;19.20;74.20
23124;DHT22;11731;48.592;8.858;2023-02-21T15:33:27;19.20;73.10
23124;DHT22;11731;48.592;8.858;2023-02-21T15:35:58;19.10;73.40
23124;DHT22;11731;48.592;8.858;2023-02-21T15:38:30;18.90;73.90
23124;DHT22;11731;48.592;8.858;2023-02-21T15:41:02;18.60;74.70
23124;DHT22;11731;48.592;8.858;2023-02-21T15:43:45;18.00;75.50
23124;DHT22;11731;48.592;8.858;2023-02-21T15:46:16;17.70;76.20
23124;DHT22;11731;48.592;8.858;2023-02-21T15:48:44;17.60;76.80
23124;DHT22;11731;48.592;8.858;2023-02-21T15:51:12;17.40;77.40
23124;DHT22;11731;48.592;8.858;2023-02-21T15:53:40;17.30;78.00
23124;DHT22;11731;48.592;8.858;2023-02-21T15:56:19;17.50;77.40
23124;DHT22;11731;48.592;8.858;2023-02-21T15:59:10;17.70;76.70
23124;DHT22;11731;48.592;8.858;2023-02-21T16:01:37;18.00;76.50
23124;DHT22;11731;48.592;8.858;2023-02-21T16:04:16;18.00;76.60
23124;DHT22;11731;48.592;8.858;2023-02-21T16:06:55;17.80;76.60
23124;DHT22;11731;48.592;8.858;2023-02-21T16:09:29;17.70;75.90
23124;DHT22;11731;48.592;8.858;2023-02-21T16:12:01;17.20;77.20
23124;DHT22;11731;48.592;8.858;2023-02-21T16:14:38;17.20;78.40
23124;DHT22;11731;48.592;8.858;2023-02-21T16:17:19;17.60;77.70
23124;DHT22;11731;48.592;8.858;2023-02-21T16:19:49;17.70;77.60
23124;DHT22;11731;48.592;8.858;2023-02-21T16:22:27;17.80;77.30
23124;DHT22;11731;48.592;8.858;2023-02-21T16:25:12;17.90;77.00
23124;DHT22;11731;48.592;8.858;2023-02-21T16:27:41;17.90;77.00
23124;DHT22;11731;48.592;8.858;2023-02-21T16:30:12;17.80;77.50
23124;DHT22;11731;48.592;8.858;2023-02-21T16:32:40;17.70;77.70
23124;DHT22;11731;48.592;8.858;2023-02-21T16:35:12;17.80;77.60
23124;DHT22;11731;48.592;8.858;2023-02-21T16:37:39;17.70;78.80
23124;DHT22;11731;48.592;8.858;2023-02-21T16:40:17;17.70;78.70
23124;DHT22;11731;48.592;8.858;2023-02-21T16:42:49;17.50;80.30
23124;DHT22;11731;48.592;8.858;2023-02-21T16:45:17;17.00;81.90
23124;DHT22;11731;48.592;8.858;2023-02-21T16:47:44;16.60;83.20
23124;DHT22;11731;48.592;8.858;2023-02-21T16:50:16;16.00;85.20
23124;DHT22;11731;48.592;8.858;2023-02-21T16:52:44;15.80;86.00
23124;DHT22;11731;48.592;8.858;2023-02-21T16:55:17;16.00;85.70
23124;DHT22;11731;48.592;8.858;2023-02-21T16:57:47;15.50;86.80
23124;DHT22;11731;48.592;8.858;2023-02-21T17:00:30;14.90;88.10
23124;DHT22;11731;48.592;8.858;2023-02-21T17:02:58;14.90;88.00
23124;DHT22;11731;48.592;8.858;2023-02-21T17:05:25;14.80;88.40
23124;DHT22;11731;48.592;8.858;2023-02-21T17:07:53;14.60;88.60
23124;DHT22;11731;48.592;8.858;2023-02-21T17:10:23;14.00;90.00
23124;DHT22;11731;48.592;8.858;2023-02-21T17:12:50;14.00;90.40
23124;DHT22;11731;48.592;8.858;2023-02-21T17:15:16;13.90;90.00
23124;DHT22;11731;48.592;8.858;2023-02-21T17:17:46;13.70;90.40
23124;DHT22;11731;48.592;8.858;2023-02-21T17:20:16;13.50;90.80
23124;DHT22;11731;48.592;8.858;2023-02-21T17:22:54;13.30;91.30
23124;DHT22;11731;48.592;8.858;2023-02-21T17:25:24;13.10;91.80
23124;DHT22;11731;48.592;8.858;2023-02-21T17:27:52;13.00;91.60
23124;DHT22;11731;48.592;8.858;2023-02-21T17:30:21;12.90;92.10
23124;DHT22;11731;48.592;8.858;2023-02-21T17:32:57;12.80;92.10